x

South Hecate Strait (46185) Wave Buoy

11:00pm - Tue 29th Jul 2014 All times are PDT. -7 hours from GMT.

  • Sig Wave height 2.6ft
  • Peak Period 6s
  • Wind
    9mph
  • Sea Temp 59°f
  • Air Temp 59°f
  • Sea Pressure 1023mb
  • South Hecate Strait
  • South Hecate Strait

More Historic Weather Station data

Upgrade to MSW Pro to gain access to the past 30 days of data for over 8000 Wavebouys and Weather Stations around the globe.

Join Pro

Comparision Forecast

View Surf forecast
   
Tue 07/29 11:00pm 2.5ft 6s 9
mph
1023mb 59f 59f
10:00pm 2.5ft 8s 9
mph
1023.1mb 59f 59f
9:00pm 2.5ft 8s 7 9 mph 1023.1mb 59f 59f
8:00pm 2.5ft 7s 9
mph
1023mb 59f 60f
7:00pm 2.5ft 8s 9
mph
1022.9mb 59f 60f
6:00pm 3ft 8s 9 11 mph 1022.7mb 59f 60f
5:00pm 3ft 7s 11 13 mph 1022.7mb 59f 60f
4:00pm 3.5ft 7s 13
mph
1022.4mb 59f 60f
3:00pm 4ft 8s 13 16 mph 1022.2mb 59f 60f
2:00pm 4ft 8s 13 16 mph 1022.1mb 59f 60f
1:00pm 3.5ft 8s 11 13 mph 1021.9mb 58f 60f
12:00pm 4ft 8s 13 16 mph 1021.4mb 58f 60f
11:00am 4ft 8s 13 18 mph 1020.9mb 58f 60f
10:00am 4.5ft 8s 13 16 mph 1020.3mb 58f 59f
9:00am 4.5ft 8s 11 13 mph 1019.9mb 58f 59f
8:00am 5ft 8s 13 18 mph 1019.2mb 58f 59f
7:00am 5ft 8s 16 18 mph 1018.4mb 58f 58f
6:00am 5ft 7s 18 22 mph 1017.8mb 58f 59f
5:00am 4.5ft 6s 20 25 mph 1017.2mb 58f 59f
4:00am 4.5ft 7s 18 22 mph 1017mb 59f 59f
3:00am 5ft 6s 20 25 mph 1016.9mb 59f 60f
2:00am 5ft 6s 22 27 mph 1017.1mb 58f 60f
1:00am 5ft 6s 22 25 mph 1017.3mb 58f 60f
12:00am 4.5ft 6s 22 27 mph 1017.5mb 58f 60f
Mon 07/28 11:00pm 4.5ft 7s 20 25 mph 1017.7mb 58f 60f
10:00pm 4ft 6s 20 22 mph 1018.1mb 58f 59f
9:00pm 3.5ft 6s 20 22 mph 1018.1mb 58f 60f
8:00pm 3.5ft 6s 20 25 mph 1018.3mb 58f 59f
7:00pm 3.5ft 4s 18 25 mph 1018.6mb 58f 59f
6:00pm 3.5ft 6s 18 22 mph 1018.8mb 57f 59f
5:00pm 3.5ft 4s 18 22 mph 1019mb 57f 59f
4:00pm 3ft 5s 18 20 mph 1019.6mb 58f 59f
3:00pm 3ft 4s 18 20 mph 1019.7mb 58f 59f
2:00pm 3ft 4s 18 22 mph 1019.9mb 58f 59f
1:00pm 3ft 4s 18 20 mph 1020.2mb 58f 58f
12:00pm 3ft 4s 18 22 mph 1020.2mb 58f 58f
11:00am 2.5ft 4s 18 22 mph 1020.3mb 58f 58f
10:00am 2ft 3s 18 22 mph 1020.3mb 58f 56f
9:00am 1.6ft 16s 16 18 mph 1020.6mb 58f 57f
8:00am 1.6ft 17s 11 16 mph 1020.7mb 58f 58f
7:00am 1.3ft 16s 11 13 mph 1020.7mb 58f 58f
6:00am 1.6ft 16s 9 11 mph 1020.8mb 58f 58f
5:00am 1.6ft 17s 9 11 mph 1020.6mb 58f 58f
4:00am 1.6ft 16s 9 11 mph 1020.5mb 58f 58f
3:00am 2ft 16s 9 11 mph 1020.7mb 58f 58f
2:00am 2ft 16s 7 9 mph 1021mb 58f 58f
1:00am 2ft 5s 9 11 mph 1021.4mb 58f 58f
12:00am 2ft 16s 9 11 mph 1021.5mb 58f 58f
Sun 07/27 11:00pm 2ft 17s 9 11 mph 1021.8mb 58f 58f
10:00pm 2ft 16s 11 13 mph 1021.9mb 58f 58f
9:00pm 2.5ft 17s 11 13 mph 1022mb 58f 58f
8:00pm 2.5ft 17s 9
mph
1022.3mb 58f 58f
7:00pm 2.5ft 17s 9 11 mph 1022.3mb 58f 58f
6:00pm 2.5ft 17s 9 11 mph 1022.7mb 58f 59f
5:00pm 2ft 17s 16 18 mph 1022.7mb 58f 59f
4:00pm 2.5ft 17s 13 16 mph 1022.9mb 58f 59f
3:00pm 2.5ft 5s 13 16 mph 1022.6mb 58f 59f
2:00pm 3ft 5s 13 16 mph 1022.5mb 57f 59f
1:00pm 3.5ft 5s 13 16 mph 1022.2mb 57f 58f
12:00pm 3.5ft 5s 16 20 mph 1022mb 57f 58f
11:00am 3.5ft 5s 18 22 mph 1021.8mb 57f 58f
10:00am 3.5ft 5s 20 25 mph 1021.3mb 57f 58f
9:00am  -   -  20
mph
1021.3mb - 58f
8:00am 2.5ft 4s 16 18 mph 1021.5mb 58f 58f
7:00am 2.5ft 6s 16 18 mph 1021.4mb 58f 58f
6:00am 2.5ft 6s 16 18 mph 1021.2mb 57f 58f
5:00am 2.5ft 17s 16 18 mph 1021.1mb 57f 58f
4:00am 2.5ft 6s 11 13 mph 1021mb 57f 58f
3:00am 3ft 5s 13 16 mph 1020.8mb 57f 58f
2:00am 3ft 6s 13 16 mph 1020.7mb 58f 58f
1:00am 4ft 6s 13 16 mph 1020.8mb 58f 58f
12:00am 4ft 6s 13 16 mph 1020.7mb 58f 58f
Sat 07/26 10:00pm 4ft 6s 16 18 mph 1020.5mb 58f 58f
9:00pm 4.5ft 6s 16 18 mph 1020.4mb 57f 58f
8:00pm 4.5ft 6s 18 20 mph 1020.2mb 57f 58f
7:00pm 5ft 6s 18 20 mph 1020.2mb 57f 58f
6:00pm 5ft 7s 18 22 mph 1020.2mb 57f 58f
5:00pm 5.5ft 6s 20 25 mph 1020.1mb 57f 58f
4:00pm 5ft 6s 22 27 mph 1019.5mb 57f 58f
3:00pm 4.5ft 6s 25 29 mph 1019.1mb 57f 58f
2:00pm 4.5ft 6s 22 25 mph 1019.1mb 58f 58f
1:00pm 4ft 5s 22 27 mph 1019.1mb 58f 58f
12:00pm 3.5ft 5s 20 25 mph 1019mb 58f 58f
11:00am 4ft 5s 18 25 mph 1018.9mb 58f 58f
10:00am 4ft 5s 20 25 mph 1018.6mb 58f 58f
9:00am 4.5ft 6s 16 18 mph 1018.4mb 58f 58f
8:00am 4.5ft 6s 20 25 mph 1017.7mb 58f 58f